Main page
METAR-TAF:

METAR-TAF

Airports :

Reykjavík Airport

Reykjavík, Iceland

latitude: 64-08N, longitude: 021-54W, elevation: 54 m

Current weather observation

The report was made 21 minutes ago, at 21:00 UTC
Wind 12 kt from the South/Southwest
Temperature 6°C
Humidity 75%
Pressure 1008 hPa
Visibility 10 km or more
Scattered clouds at a height of 2400 ft
Overcast at a height of 3000 ft

METAR: BIRK 202100Z 21012KT 9999 SCT024 OVC030 06/02 Q1008

Time: 21:21 (21:21 UTC)

Forecast

The report was made 1 hour and 50 minutes ago, at 19:31 UTC
Forecast valid from 20 at 21 UTC to 21 at 21 UTC
Wind 18 kt from the Southwest
Visibility 10 km or more
Scattered clouds at a height of 2500 ft
Broken clouds at a height of 3500 ft
Becoming
from 21 at 01 UTC to 21 at 03 UTC
Wind 8 kt from the South/Southwest
Becoming
from 21 at 09 UTC to 21 at 12 UTC
Wind 10 kt from the East/Southeast

TAF: BIRK 201931Z 2021/2121 23018KT 9999 SCT025 BKN035 TX08/2115Z TN04/2106Z BECMG 2101/2103 20008KT BECMG 2109/2112 11010KT

Weather observations and forecasts of more than 4000 airports (METAR and TAF reports).

The available stations are represented by yellow and red dots on the map.

Hover mouse over dot to see the name of the station.

Then click to see weather observations and forecasts.

To change the map : click on the green buttons with a black cross to zoom in, on the green button with a dash to zoom out, or on the green arrows for adjacent maps.


METAR-TAF: